Bookmark and Share
Track history (hours):
 

Bahamas Celebration

Last reported at 2014-Apr-20 01:33 UTC. Time now 2014-Apr-20 20:59 UTC.
Position N 26°42' W 079°45'.

Length 202 m; draft 6.1 m.

Type: Passenger vessel. MMSI: 311011300.

NotesDate/timePositionNaut miles runAvg speedWind from/ knotsBaromVisibWave heightAir tempDewpointWater temp
2014-Apr-20 01:33N 26°42' W 079°45'6 5.7
2014-Apr-20 00:31N 26°42' W 079°51'5 5.0
2014-Apr-19 23:31N 26°44' W 079°57'6 0.7
2014-Apr-19 14:30N 26°46' W 080°03'0 0.0
2014-Apr-19 13:33N 26°46' W 080°03'0 0.0
2014-Apr-19 12:33N 26°46' W 080°03'0 0.0
2014-Apr-19 11:33N 26°46' W 080°03'4 4.5
2014-Apr-19 10:32N 26°44' W 079°59'6 5.9
2014-Apr-19 09:33N 26°40' W 079°54'7 6.6
2014-Apr-19 08:33N 26°36' W 079°48'8 8.4
2014-Apr-19 07:33N 26°31' W 079°40'7 6.7
2014-Apr-19 06:33N 26°30' W 079°33'32 0.7
2014-Apr-17 11:28N 26°46' W 080°03'2 2.3
2014-Apr-17 10:33N 26°46' W 080°01'8 7.8
2014-Apr-17 09:33N 26°40' W 079°54'7 7.1
2014-Apr-17 08:33N 26°36' W 079°49'6 6.0
2014-Apr-17 07:33N 26°32' W 079°43'6 6.2
2014-Apr-17 06:32N 26°30' W 079°37'6 6.4
2014-Apr-17 05:31N 26°28' W 079°30'21 0.8
2014-Apr-16 02:32N 26°46' W 079°40'5 5.1
2014-Apr-16 01:33N 26°46' W 079°45'5 5.3
2014-Apr-16 00:31N 26°45' W 079°51'5 4.9
2014-Apr-15 23:33N 26°45' W 079°56'6 2.9
2014-Apr-15 21:30N 26°46' W 080°03'0 0.0
2014-Apr-15 20:33N 26°46' W 080°03'0 0.0
2014-Apr-15 19:33N 26°46' W 080°03'0 0.0
2014-Apr-15 16:27N 26°46' W 080°03'0 0.0
2014-Apr-15 15:30N 26°46' W 080°03'0 0.0
2014-Apr-15 14:33N 26°46' W 080°03'0 0.0
2014-Apr-15 10:33N 26°46' W 080°03'4 3.8
2014-Apr-15 09:34N 26°44' W 079°60'7 6.5
2014-Apr-15 08:34N 26°40' W 079°54'7 7.0
2014-Apr-15 07:34N 26°36' W 079°48'7 7.0
2014-Apr-15 06:34N 26°33' W 079°41'5 5.2
2014-Apr-15 05:34N 26°32' W 079°35'25 0.6
2014-Apr-13 10:22N 26°44' W 079°59'5 6.0
2014-Apr-13 09:33N 26°42' W 079°54'7 7.0
2014-Apr-13 08:33N 26°37' W 079°48'8 8.5
2014-Apr-13 07:33N 26°33' W 079°40'8 8.4
2014-Apr-13 06:33N 26°30' W 079°31'28 0.6
2014-Apr-11 10:20N 26°43' W 079°59'4 5.8
2014-Apr-11 09:33N 26°40' W 079°55'8 7.7
2014-Apr-11 08:33N 26°37' W 079°47'7 6.7
2014-Apr-11 07:33N 26°35' W 079°40'7 5.9
2014-Apr-11 06:25N 26°32' W 079°33'  

Dump ship's entire track history

sailing weather and tide predictions

Bahamas Celebration — C6XJ3 — position and weather